createdAt,value
2023-04-08T00:02:05.887Z,9.33
2023-04-08T00:04:33.891Z,9.35
2023-04-08T00:07:01.666Z,9.37
2023-04-08T00:09:29.360Z,9.38
2023-04-08T00:11:57.678Z,9.40
2023-04-08T00:14:25.490Z,9.35
2023-04-08T00:16:54.939Z,9.33
2023-04-08T00:19:22.722Z,9.34
2023-04-08T00:21:51.153Z,9.34
2023-04-08T00:24:18.890Z,9.38
2023-04-08T00:26:46.633Z,9.38
2023-04-08T00:29:15.068Z,9.40
2023-04-08T00:31:42.872Z,9.43
2023-04-08T00:34:12.045Z,9.44
2023-04-08T00:36:40.161Z,9.46
2023-04-08T00:39:07.901Z,9.49
2023-04-08T00:41:36.498Z,9.48
2023-04-08T00:44:04.348Z,9.47
2023-04-08T00:46:32.515Z,9.46
2023-04-08T00:49:02.267Z,9.43
2023-04-08T00:51:32.189Z,9.43
2023-04-08T00:54:00.661Z,9.43
2023-04-08T00:56:28.916Z,9.40
2023-04-08T00:58:56.636Z,9.38
2023-04-08T01:01:33.740Z,9.39
2023-04-08T01:04:11.044Z,9.38
2023-04-08T01:06:46.892Z,9.39
2023-04-08T01:09:15.160Z,9.38
2023-04-08T01:11:45.703Z,9.34
2023-04-08T01:14:18.732Z,9.30
2023-04-08T01:16:47.620Z,9.25
2023-04-08T01:19:29.831Z,9.25
2023-04-08T01:22:06.694Z,9.27
2023-04-08T01:24:40.149Z,9.24
2023-04-08T01:27:11.630Z,9.25
2023-04-08T01:29:40.574Z,9.27
2023-04-08T01:32:09.200Z,9.28
2023-04-08T01:34:39.455Z,9.28
2023-04-08T01:37:08.388Z,9.27
2023-04-08T01:39:37.252Z,9.28
2023-04-08T01:42:05.774Z,9.28
2023-04-08T01:44:37.093Z,9.23
2023-04-08T01:47:05.202Z,9.17
2023-04-08T01:49:34.137Z,9.20
2023-04-08T01:52:02.466Z,9.22
2023-04-08T01:54:30.209Z,9.17
2023-04-08T01:56:59.602Z,9.17
2023-04-08T01:59:32.603Z,9.17
2023-04-08T02:02:03.282Z,9.08
2023-04-08T02:04:31.141Z,9.09
2023-04-08T02:06:59.424Z,9.10
2023-04-08T02:09:27.360Z,9.05
2023-04-08T02:11:56.943Z,9.04
2023-04-08T02:14:26.151Z,9.06
2023-04-08T02:16:55.981Z,9.04
2023-04-08T02:19:32.706Z,9.05
2023-04-08T02:22:10.461Z,9.04
2023-04-08T02:24:40.213Z,9.04
2023-04-08T02:27:11.519Z,9.02
2023-04-08T02:29:42.339Z,9.00
2023-04-08T02:32:15.969Z,8.99
2023-04-08T02:34:46.005Z,8.99
2023-04-08T02:37:13.824Z,8.97
2023-04-08T02:39:41.520Z,8.97
2023-04-08T02:42:11.726Z,8.96
2023-04-08T02:44:39.793Z,8.95
2023-04-08T02:47:07.548Z,8.91
2023-04-08T02:49:35.548Z,8.89
2023-04-08T02:52:04.716Z,8.86
2023-04-08T02:54:32.465Z,8.85
2023-04-08T02:57:00.191Z,8.82
2023-04-08T02:59:28.038Z,8.81
2023-04-08T03:01:55.819Z,8.77
2023-04-08T03:04:23.554Z,8.73
2023-04-08T03:06:51.353Z,8.71
2023-04-08T03:09:20.566Z,8.65
2023-04-08T03:11:53.074Z,8.60
2023-04-08T03:14:20.548Z,8.58
2023-04-08T03:16:48.784Z,8.54
2023-04-08T03:19:16.724Z,8.48
2023-04-08T03:21:44.728Z,8.46
2023-04-08T03:24:12.490Z,8.44
2023-04-08T03:26:41.564Z,8.43
2023-04-08T03:29:10.011Z,8.36
2023-04-08T03:31:38.067Z,8.37
2023-04-08T03:34:05.813Z,8.38
2023-04-08T03:36:33.731Z,8.37
2023-04-08T03:39:01.536Z,8.38
2023-04-08T03:41:29.297Z,8.38
2023-04-08T03:43:59.209Z,8.38
2023-04-08T03:46:27.062Z,8.39
2023-04-08T03:48:54.847Z,8.43
2023-04-08T03:51:22.599Z,8.45
2023-04-08T03:53:50.262Z,8.39
2023-04-08T03:56:18.096Z,8.26
2023-04-08T03:58:45.858Z,8.18
2023-04-08T04:01:15.260Z,8.19
2023-04-08T04:03:43.194Z,8.10
2023-04-08T04:06:11.163Z,8.07
2023-04-08T04:08:38.774Z,8.06
2023-04-08T04:11:07.124Z,8.06
2023-04-08T04:13:34.808Z,8.04
2023-04-08T04:16:02.540Z,7.94
2023-04-08T04:18:31.695Z,7.87
2023-04-08T04:20:59.368Z,7.75
2023-04-08T04:23:27.141Z,7.72
2023-04-08T04:25:54.799Z,7.60
2023-04-08T04:28:22.477Z,7.54
2023-04-08T04:30:50.171Z,7.31
2023-04-08T04:33:17.956Z,7.36
2023-04-08T04:35:47.157Z,7.35
2023-04-08T04:38:14.887Z,7.39
2023-04-08T04:40:42.604Z,7.42
2023-04-08T04:43:10.408Z,7.43
2023-04-08T04:45:38.068Z,7.31
2023-04-08T04:48:06.186Z,7.33
2023-04-08T04:50:34.010Z,7.32
2023-04-08T04:53:03.189Z,7.13
2023-04-08T04:55:30.954Z,7.14
2023-04-08T04:57:58.604Z,7.06
2023-04-08T05:00:26.382Z,7.04
2023-04-08T05:02:54.405Z,6.91
2023-04-08T05:05:22.301Z,6.86
2023-04-08T05:07:50.045Z,6.87
2023-04-08T05:10:19.220Z,6.93
2023-04-08T05:12:46.897Z,6.92
2023-04-08T05:15:14.675Z,6.97
2023-04-08T05:17:42.474Z,6.98
2023-04-08T05:20:10.414Z,7.05
2023-04-08T05:22:38.261Z,7.05
2023-04-08T05:25:06.786Z,7.03
2023-04-08T05:27:36.441Z,6.99
2023-04-08T05:30:04.850Z,6.95
2023-04-08T05:32:32.763Z,6.96
2023-04-08T05:35:03.463Z,6.91
2023-04-08T05:37:31.433Z,6.92
2023-04-08T05:39:59.168Z,6.97
2023-04-08T05:42:27.134Z,7.09
2023-04-08T05:44:56.491Z,7.12
2023-04-08T05:47:24.273Z,7.14
2023-04-08T05:49:52.277Z,7.13
2023-04-08T05:52:20.054Z,7.12
2023-04-08T05:54:47.875Z,7.02
2023-04-08T05:57:16.795Z,6.86
2023-04-08T05:59:45.002Z,6.89
2023-04-08T06:02:14.175Z,6.89
2023-04-08T06:04:42.305Z,6.75
2023-04-08T06:07:10.129Z,6.79
2023-04-08T06:09:38.377Z,6.71
2023-04-08T06:12:06.709Z,6.71
2023-04-08T06:14:34.476Z,6.68
2023-04-08T06:17:02.331Z,6.66
2023-04-08T06:19:31.597Z,6.73
2023-04-08T06:21:59.798Z,6.57
2023-04-08T06:24:27.766Z,6.63
2023-04-08T06:26:55.475Z,6.68
2023-04-08T06:29:23.875Z,6.80
2023-04-08T06:31:51.808Z,6.86
2023-04-08T06:34:19.547Z,6.97
2023-04-08T06:36:50.325Z,6.83
2023-04-08T06:39:19.425Z,6.88
2023-04-08T06:41:47.185Z,6.78
2023-04-08T06:44:14.951Z,6.69
2023-04-08T06:46:42.689Z,6.78
2023-04-08T06:49:10.532Z,6.85
2023-04-08T06:51:38.321Z,6.85
2023-04-08T06:54:07.456Z,6.68
2023-04-08T06:56:35.437Z,6.71
2023-04-08T06:59:03.613Z,6.69
2023-04-08T07:01:32.172Z,6.77
2023-04-08T07:04:02.216Z,6.86
2023-04-08T07:06:30.301Z,6.89
2023-04-08T07:08:58.149Z,6.88
2023-04-08T07:11:27.658Z,6.98
2023-04-08T07:13:55.476Z,7.07
2023-04-08T07:16:23.265Z,7.15
2023-04-08T07:18:51.994Z,7.32
2023-04-08T07:21:20.064Z,7.42
2023-04-08T07:23:47.961Z,7.50
2023-04-08T07:26:15.758Z,7.52
2023-04-08T07:28:45.131Z,7.45
2023-04-08T07:31:14.647Z,7.53
2023-04-08T07:33:42.555Z,7.61
2023-04-08T07:36:11.518Z,7.67
2023-04-08T07:38:39.553Z,7.76
2023-04-08T07:41:07.437Z,7.92
2023-04-08T07:43:37.159Z,8.01
2023-04-08T07:46:09.100Z,8.16
2023-04-08T07:48:37.462Z,8.26
2023-04-08T07:51:08.030Z,8.27
2023-04-08T07:53:38.792Z,8.38
2023-04-08T07:56:12.818Z,8.57
2023-04-08T07:58:41.490Z,8.69
2023-04-08T08:01:18.903Z,8.60
2023-04-08T08:03:48.011Z,8.57
2023-04-08T08:06:16.584Z,8.55
2023-04-08T08:08:44.530Z,8.65
2023-04-08T08:11:12.424Z,8.65
2023-04-08T08:13:40.474Z,8.74
2023-04-08T08:16:11.432Z,8.90
2023-04-08T08:18:41.608Z,9.07
2023-04-08T08:21:10.152Z,9.20
2023-04-08T08:23:38.546Z,9.33
2023-04-08T08:26:07.685Z,9.42
2023-04-08T08:28:35.631Z,9.52
2023-04-08T08:31:03.440Z,9.56
2023-04-08T08:33:31.281Z,9.53
2023-04-08T08:36:00.509Z,9.57
2023-04-08T08:38:32.155Z,9.58
2023-04-08T08:41:00.913Z,9.59
2023-04-08T08:43:30.323Z,9.64
2023-04-08T08:45:58.138Z,9.74
2023-04-08T08:48:26.054Z,9.69
2023-04-08T08:50:53.986Z,9.70
2023-04-08T08:53:32.743Z,9.75
2023-04-08T08:58:33.039Z,9.72
2023-04-08T09:01:01.088Z,9.73
2023-04-08T09:03:30.224Z,9.85
2023-04-08T09:06:00.108Z,9.97
2023-04-08T09:08:32.284Z,9.83
2023-04-08T09:11:13.488Z,9.93
2023-04-08T09:13:41.713Z,9.86
2023-04-08T09:16:10.987Z,9.99
2023-04-08T09:18:39.970Z,10.16
2023-04-08T09:21:08.637Z,10.26
2023-04-08T09:23:43.359Z,10.44
2023-04-08T09:26:13.146Z,10.39
2023-04-08T09:28:42.380Z,10.39
2023-04-08T09:31:21.690Z,10.44
2023-04-08T09:33:50.384Z,10.17
2023-04-08T09:36:18.609Z,10.08
2023-04-08T09:38:49.057Z,10.05
2023-04-08T09:41:18.168Z,10.06
2023-04-08T09:43:50.606Z,10.15
2023-04-08T09:46:23.384Z,10.31
2023-04-08T09:48:52.279Z,10.42
2023-04-08T09:51:21.363Z,10.47
2023-04-08T09:53:57.587Z,10.70
2023-04-08T09:56:28.754Z,10.99
2023-04-08T09:59:00.862Z,11.24
2023-04-08T10:01:34.571Z,11.51
2023-04-08T10:04:06.482Z,11.55
2023-04-08T10:06:35.882Z,11.71
2023-04-08T10:09:05.924Z,11.84
2023-04-08T10:11:36.430Z,11.88
2023-04-08T10:14:04.517Z,11.91
2023-04-08T10:16:32.300Z,11.94
2023-04-08T10:19:00.156Z,12.06
2023-04-08T10:21:35.621Z,12.05
2023-04-08T10:24:08.136Z,12.04
2023-04-08T10:26:37.223Z,12.12
2023-04-08T10:29:33.350Z,12.20
2023-04-08T10:32:02.850Z,12.23
2023-04-08T10:34:30.924Z,12.27
2023-04-08T10:37:03.750Z,12.33
2023-04-08T10:39:33.468Z,12.25
2023-04-08T10:42:02.818Z,12.15
2023-04-08T10:44:30.709Z,12.09
2023-04-08T10:46:58.520Z,12.03
2023-04-08T10:49:33.743Z,11.96
2023-04-08T10:52:02.084Z,11.82
2023-04-08T10:54:29.893Z,11.69
2023-04-08T10:56:59.949Z,11.49
2023-04-08T10:59:32.919Z,11.37
2023-04-08T11:02:01.522Z,11.40
2023-04-08T11:04:29.596Z,11.55
2023-04-08T11:06:58.401Z,11.68
2023-04-08T11:09:26.310Z,11.79
2023-04-08T11:11:55.025Z,11.81
2023-04-08T11:14:25.381Z,11.83
2023-04-08T11:16:53.382Z,11.77
2023-04-08T11:19:21.466Z,11.82
2023-04-08T11:21:49.511Z,11.86
2023-04-08T11:24:17.619Z,12.02
2023-04-08T11:26:45.799Z,12.14
2023-04-08T11:29:15.218Z,12.12
2023-04-08T11:31:44.915Z,12.02
2023-04-08T11:34:12.928Z,11.94
2023-04-08T11:36:41.951Z,11.94
2023-04-08T11:39:13.013Z,12.02
2023-04-08T11:41:41.389Z,12.02
2023-04-08T11:44:09.898Z,12.12
2023-04-08T11:46:42.452Z,12.20
2023-04-08T11:49:15.921Z,12.32
2023-04-08T11:51:56.439Z,12.36
2023-04-08T11:54:28.888Z,12.50
2023-04-08T11:56:58.495Z,12.63
2023-04-08T11:59:28.976Z,12.84
2023-04-08T12:01:57.742Z,12.92
2023-04-08T12:04:27.254Z,13.18
2023-04-08T12:06:56.852Z,13.43
2023-04-08T12:09:25.986Z,13.34
2023-04-08T12:11:53.710Z,13.23
2023-04-08T12:14:26.805Z,13.29
2023-04-08T12:16:56.160Z,13.39
2023-04-08T12:19:23.951Z,13.39
2023-04-08T12:21:53.221Z,13.42
2023-04-08T12:24:21.542Z,13.33
2023-04-08T12:26:49.411Z,13.38
2023-04-08T12:29:17.252Z,13.45
2023-04-08T12:31:45.585Z,13.38
2023-04-08T12:34:13.597Z,13.58
2023-04-08T12:36:41.912Z,13.62
2023-04-08T12:39:11.331Z,13.55
2023-04-08T12:41:39.098Z,13.75
2023-04-08T12:44:07.001Z,13.92
2023-04-08T12:46:34.989Z,13.89
2023-04-08T12:49:05.113Z,13.91
2023-04-08T12:51:33.774Z,13.91
2023-04-08T12:54:02.065Z,13.78
2023-04-08T12:56:31.594Z,13.83
2023-04-08T12:58:59.949Z,13.75
2023-04-08T13:01:28.264Z,13.69
2023-04-08T13:03:57.137Z,13.59
2023-04-08T13:06:25.994Z,13.44
2023-04-08T13:08:53.938Z,13.40
2023-04-08T13:11:22.585Z,13.36
2023-04-08T13:13:52.289Z,13.43
2023-04-08T13:16:20.512Z,13.51
2023-04-08T13:18:48.373Z,13.56
2023-04-08T13:21:16.566Z,13.52
2023-04-08T13:23:44.420Z,13.46
2023-04-08T13:26:12.480Z,13.33
2023-04-08T13:28:53.651Z,13.36
2023-04-08T13:31:25.949Z,13.52
2023-04-08T13:33:56.980Z,13.64
2023-04-08T13:36:26.008Z,13.79
2023-04-08T13:38:53.849Z,13.93
2023-04-08T13:41:22.142Z,14.04
2023-04-08T13:43:50.506Z,13.95
2023-04-08T13:46:18.754Z,14.01
2023-04-08T13:48:47.983Z,13.90
2023-04-08T13:51:16.353Z,14.07
2023-04-08T13:53:44.129Z,14.07
2023-04-08T13:56:14.160Z,14.03
2023-04-08T13:58:41.995Z,13.94
2023-04-08T14:01:09.953Z,13.93
2023-04-08T14:03:38.034Z,14.02
2023-04-08T14:06:07.958Z,14.11
2023-04-08T14:08:36.465Z,14.01
2023-04-08T14:11:04.356Z,13.98
2023-04-08T14:13:33.052Z,13.96
2023-04-08T14:16:02.306Z,13.79
2023-04-08T14:18:30.162Z,13.73
2023-04-08T14:20:58.096Z,13.87
2023-04-08T14:23:27.274Z,13.96
2023-04-08T14:25:55.028Z,13.95
2023-04-08T14:28:22.690Z,13.92
2023-04-08T14:30:50.695Z,13.77
2023-04-08T14:33:18.979Z,13.73
2023-04-08T14:35:47.827Z,13.76
2023-04-08T14:38:15.807Z,13.82
2023-04-08T14:40:45.051Z,13.91
2023-04-08T14:43:13.540Z,13.85
2023-04-08T14:45:42.364Z,13.67
2023-04-08T14:48:10.339Z,13.67
2023-04-08T14:50:38.301Z,13.55
2023-04-08T14:53:06.206Z,13.46
2023-04-08T14:55:34.037Z,13.44
2023-04-08T14:58:03.248Z,13.43
2023-04-08T15:00:31.101Z,13.40
2023-04-08T15:02:59.206Z,13.39
2023-04-08T15:05:27.598Z,13.43
2023-04-08T15:07:55.498Z,13.49
2023-04-08T15:10:23.400Z,13.55
2023-04-08T15:12:51.210Z,13.60
2023-04-08T15:15:20.647Z,13.62
2023-04-08T15:17:51.000Z,13.56
2023-04-08T15:20:20.229Z,13.52
2023-04-08T15:22:48.118Z,13.49
2023-04-08T15:25:16.119Z,13.38
2023-04-08T15:27:44.058Z,13.32
2023-04-08T15:30:12.602Z,13.39
2023-04-08T15:32:42.448Z,13.44
2023-04-08T15:35:11.099Z,13.60
2023-04-08T15:37:38.849Z,13.70
2023-04-08T15:40:08.215Z,13.70
2023-04-08T15:42:36.696Z,13.59
2023-04-08T15:45:05.308Z,13.58
2023-04-08T15:47:34.405Z,13.50
2023-04-08T15:50:03.724Z,13.53
2023-04-08T15:52:35.314Z,13.57
2023-04-08T15:55:03.642Z,13.55
2023-04-08T15:57:32.536Z,13.53
2023-04-08T16:00:00.526Z,13.46
2023-04-08T16:02:28.678Z,13.44
2023-04-08T16:04:56.621Z,13.46
2023-04-08T16:07:25.889Z,13.44
2023-04-08T16:09:53.727Z,13.43
2023-04-08T16:12:22.000Z,13.31
2023-04-08T16:14:49.834Z,13.32
2023-04-08T16:17:18.071Z,13.31
2023-04-08T16:19:46.102Z,13.27
2023-04-08T16:22:14.036Z,13.35
2023-04-08T16:24:43.253Z,13.42
2023-04-08T16:27:11.743Z,13.43
2023-04-08T16:29:39.771Z,13.42
2023-04-08T16:32:08.917Z,13.37
2023-04-08T16:34:39.771Z,13.35
2023-04-08T16:37:07.694Z,13.30
2023-04-08T16:39:35.765Z,13.31
2023-04-08T16:42:05.281Z,13.33
2023-04-08T16:44:33.568Z,13.32
2023-04-08T16:47:01.650Z,13.27
2023-04-08T16:49:29.466Z,13.24
2023-04-08T16:51:57.745Z,13.18
2023-04-08T16:54:25.649Z,13.14
2023-04-08T16:56:53.380Z,13.15
2023-04-08T16:59:23.088Z,13.17
2023-04-08T17:01:54.429Z,13.13
2023-04-08T17:04:22.268Z,13.11
2023-04-08T17:06:50.225Z,13.09
2023-04-08T17:09:18.168Z,13.14
2023-04-08T17:11:46.040Z,13.07
2023-04-08T17:14:13.866Z,12.99
2023-04-08T17:16:43.114Z,12.93
2023-04-08T17:19:13.215Z,12.92
2023-04-08T17:21:42.693Z,12.91
2023-04-08T17:24:18.032Z,12.91
2023-04-08T17:26:46.860Z,12.94
2023-04-08T17:29:14.728Z,12.91
2023-04-08T17:31:44.667Z,12.94
2023-04-08T17:34:12.665Z,12.96
2023-04-08T17:36:40.525Z,12.86
2023-04-08T17:39:08.361Z,12.83
2023-04-08T17:41:40.440Z,12.76
2023-04-08T17:44:08.969Z,12.74
2023-04-08T17:46:37.034Z,12.79
2023-04-08T17:49:06.264Z,12.81
2023-04-08T17:51:34.322Z,12.79
2023-04-08T17:54:02.276Z,12.78
2023-04-08T17:56:33.449Z,12.78
2023-04-08T17:59:06.212Z,12.76
2023-04-08T18:01:34.486Z,12.73
2023-04-08T18:04:02.609Z,12.69
2023-04-08T18:06:32.534Z,12.67
2023-04-08T18:09:00.770Z,12.66
2023-04-08T18:11:28.644Z,12.63
2023-04-08T18:13:56.563Z,12.60
2023-04-08T18:16:24.521Z,12.60
2023-04-08T18:18:52.375Z,12.61
2023-04-08T18:21:21.927Z,12.58
2023-04-08T18:23:52.165Z,12.60
2023-04-08T18:26:20.168Z,12.62
2023-04-08T18:28:47.950Z,12.60
2023-04-08T18:31:15.729Z,12.59
2023-04-08T18:33:43.678Z,12.57
2023-04-08T18:36:13.888Z,12.57
2023-04-08T18:38:41.864Z,12.58
2023-04-08T18:41:14.439Z,12.58
2023-04-08T18:43:42.237Z,12.57
2023-04-08T18:46:10.137Z,12.52
2023-04-08T18:48:38.264Z,12.50
2023-04-08T18:51:06.398Z,12.51
2023-04-08T18:53:34.113Z,12.51
2023-04-08T18:56:02.025Z,12.47
2023-04-08T18:58:31.887Z,12.46
2023-04-08T19:00:59.650Z,12.42
2023-04-08T19:03:27.480Z,12.41
2023-04-08T19:05:55.489Z,12.40
2023-04-08T19:08:23.299Z,12.32
2023-04-08T19:10:51.482Z,12.36
2023-04-08T19:13:19.259Z,12.35
2023-04-08T19:15:48.488Z,12.35
2023-04-08T19:18:16.253Z,12.34
2023-04-08T19:20:44.143Z,12.34
2023-04-08T19:23:12.027Z,12.38
2023-04-08T19:25:39.837Z,12.34
2023-04-08T19:28:09.144Z,12.31
2023-04-08T19:30:38.635Z,12.33
2023-04-08T19:33:08.873Z,12.33
2023-04-08T19:35:36.827Z,12.34
2023-04-08T19:38:05.665Z,12.31
2023-04-08T19:40:34.179Z,12.32
2023-04-08T19:43:02.067Z,12.32
2023-04-08T19:45:29.832Z,12.28
2023-04-08T19:47:57.977Z,12.24
2023-04-08T19:50:27.956Z,12.23
2023-04-08T19:52:55.792Z,12.26
2023-04-08T19:55:23.818Z,12.21
2023-04-08T19:57:52.728Z,12.15
2023-04-08T20:00:20.532Z,12.11
2023-04-08T20:02:48.613Z,12.01
2023-04-08T20:05:17.661Z,12.01
2023-04-08T20:07:49.649Z,12.01
2023-04-08T20:10:17.607Z,11.93
2023-04-08T20:12:45.350Z,11.95
2023-04-08T20:15:23.559Z,11.93
2023-04-08T20:17:52.814Z,11.94
2023-04-08T20:20:21.545Z,11.99
2023-04-08T20:22:50.799Z,11.98
2023-04-08T20:25:18.683Z,11.96
2023-04-08T20:27:46.478Z,11.95
2023-04-08T20:30:14.352Z,11.92
2023-04-08T20:32:42.080Z,11.92
2023-04-08T20:35:10.939Z,11.82
2023-04-08T20:37:38.951Z,11.78
2023-04-08T20:40:13.671Z,11.77
2023-04-08T20:42:41.752Z,11.77
2023-04-08T20:45:11.027Z,11.77
2023-04-08T20:47:39.244Z,11.77
2023-04-08T20:50:08.962Z,11.76
2023-04-08T20:52:36.803Z,11.75
2023-04-08T20:55:05.159Z,11.73
2023-04-08T20:57:34.441Z,11.68
2023-04-08T21:00:06.370Z,11.70
2023-04-08T21:02:34.701Z,11.70
2023-04-08T21:05:02.614Z,11.73
2023-04-08T21:07:30.794Z,11.76
2023-04-08T21:09:58.475Z,11.70
2023-04-08T21:12:26.250Z,11.69
2023-04-08T21:14:55.410Z,11.68
2023-04-08T21:17:23.153Z,11.62
2023-04-08T21:19:50.917Z,11.63
2023-04-08T21:22:18.694Z,11.65
2023-04-08T21:24:46.399Z,11.68
2023-04-08T21:27:14.156Z,11.65
2023-04-08T21:29:41.918Z,11.63
2023-04-08T21:32:11.178Z,11.59
2023-04-08T21:34:38.896Z,11.63
2023-04-08T21:37:07.198Z,11.66
2023-04-08T21:39:34.951Z,11.65
2023-04-08T21:42:02.783Z,11.60
2023-04-08T21:44:30.860Z,11.61
2023-04-08T21:47:00.466Z,11.65
2023-04-08T21:49:31.602Z,11.59
2023-04-08T21:51:59.419Z,11.53
2023-04-08T21:54:27.218Z,11.54
2023-04-08T21:56:55.131Z,11.54
2023-04-08T21:59:22.859Z,11.51
2023-04-08T22:01:50.843Z,11.54
2023-04-08T22:04:19.610Z,11.53
2023-04-08T22:06:49.796Z,11.49
2023-04-08T22:09:17.683Z,11.49
2023-04-08T22:11:45.606Z,11.47
2023-04-08T22:14:13.553Z,11.42
2023-04-08T22:16:44.735Z,11.39
2023-04-08T22:19:12.461Z,11.38
2023-04-08T22:21:40.608Z,11.37
2023-04-08T22:24:09.791Z,11.35
2023-04-08T22:26:37.879Z,11.27
2023-04-08T22:29:05.684Z,11.23
2023-04-08T22:31:33.411Z,11.14
2023-04-08T22:34:01.137Z,11.10
2023-04-08T22:36:28.886Z,11.09
2023-04-08T22:38:56.643Z,11.03
2023-04-08T22:41:25.732Z,11.01
2023-04-08T22:43:53.417Z,10.96
2023-04-08T22:46:21.315Z,10.93
2023-04-08T22:48:49.836Z,10.85
2023-04-08T22:51:17.824Z,10.82
2023-04-08T22:53:45.530Z,10.76
2023-04-08T22:56:13.254Z,10.70
2023-04-08T22:58:42.448Z,10.66
2023-04-08T23:01:17.002Z,10.60
2023-04-08T23:03:45.518Z,10.53
2023-04-08T23:06:13.266Z,10.49
2023-04-08T23:08:41.707Z,10.45
2023-04-08T23:11:09.557Z,10.36
2023-04-08T23:13:37.617Z,10.33
2023-04-08T23:16:07.303Z,10.28
2023-04-08T23:18:35.374Z,10.25
2023-04-08T23:21:03.884Z,10.20
2023-04-08T23:23:31.585Z,10.18
2023-04-08T23:25:59.341Z,10.14
2023-04-08T23:28:27.031Z,10.09
2023-04-08T23:30:54.944Z,10.05
2023-04-08T23:33:24.053Z,10.04
2023-04-08T23:35:51.822Z,10.03
2023-04-08T23:38:19.502Z,10.01
2023-04-08T23:40:47.162Z,9.98
2023-04-08T23:43:14.924Z,9.92
2023-04-08T23:45:42.627Z,9.90
2023-04-08T23:48:10.444Z,9.83
2023-04-08T23:50:39.549Z,9.81
2023-04-08T23:53:07.268Z,9.79
2023-04-08T23:55:34.948Z,9.77
2023-04-08T23:58:02.906Z,9.73
